sensor_id;sensor_type;location;lat;lon;timestamp;noise_LAeq;noise_LA_min;noise_LA_max;noise_LA01;noise_LA95
72028;Laerm;59781;52.090;5.030;2023-05-27T00:00:08;41.02;38.68;49.56;;
72028;Laerm;59781;52.090;5.030;2023-05-27T00:02:34;40.95;38.49;54.27;;
72028;Laerm;59781;52.090;5.030;2023-05-27T00:05:01;40.79;38.72;43.77;;
72028;Laerm;59781;52.090;5.030;2023-05-27T00:07:26;40.72;38.68;43.15;;
72028;Laerm;59781;52.090;5.030;2023-05-27T00:09:54;40.81;38.67;43.20;;
72028;Laerm;59781;52.090;5.030;2023-05-27T00:12:20;40.81;38.88;47.86;;
72028;Laerm;59781;52.090;5.030;2023-05-27T00:14:45;40.81;38.45;45.19;;
72028;Laerm;59781;52.090;5.030;2023-05-27T00:17:12;41.48;38.24;51.83;;
72028;Laerm;59781;52.090;5.030;2023-05-27T00:19:41;40.91;38.88;43.45;;
72028;Laerm;59781;52.090;5.030;2023-05-27T00:22:08;41.73;38.83;51.10;;
72028;Laerm;59781;52.090;5.030;2023-05-27T00:24:34;41.72;38.35;51.98;;
72028;Laerm;59781;52.090;5.030;2023-05-27T00:27:02;41.32;38.77;49.80;;
72028;Laerm;59781;52.090;5.030;2023-05-27T00:29:28;41.27;38.80;51.52;;
72028;Laerm;59781;52.090;5.030;2023-05-27T00:31:54;41.16;38.91;50.89;;
72028;Laerm;59781;52.090;5.030;2023-05-27T00:34:19;41.36;39.04;54.49;;
72028;Laerm;59781;52.090;5.030;2023-05-27T00:36:45;41.42;38.79;49.34;;
72028;Laerm;59781;52.090;5.030;2023-05-27T00:39:11;40.78;38.78;46.04;;
72028;Laerm;59781;52.090;5.030;2023-05-27T00:41:38;40.68;38.65;45.80;;
72028;Laerm;59781;52.090;5.030;2023-05-27T00:44:08;40.56;38.48;43.51;;
72028;Laerm;59781;52.090;5.030;2023-05-27T00:46:34;40.73;38.75;42.60;;
72028;Laerm;59781;52.090;5.030;2023-05-27T00:49:01;41.47;38.70;62.16;;
72028;Laerm;59781;52.090;5.030;2023-05-27T00:51:28;41.67;38.81;55.54;;
72028;Laerm;59781;52.090;5.030;2023-05-27T00:53:54;41.56;39.11;52.69;;
72028;Laerm;59781;52.090;5.030;2023-05-27T00:56:20;41.32;39.10;47.04;;
72028;Laerm;59781;52.090;5.030;2023-05-27T00:58:46;42.95;38.77;65.15;;
72028;Laerm;59781;52.090;5.030;2023-05-27T01:01:13;40.80;38.73;42.94;;
72028;Laerm;59781;52.090;5.030;2023-05-27T01:03:39;41.07;38.89;46.65;;
72028;Laerm;59781;52.090;5.030;2023-05-27T01:09:27;41.15;38.98;44.96;;
72028;Laerm;59781;52.090;5.030;2023-05-27T01:12:18;40.87;38.66;43.32;;
72028;Laerm;59781;52.090;5.030;2023-05-27T01:14:50;41.10;38.85;55.18;;
72028;Laerm;59781;52.090;5.030;2023-05-27T01:17:18;40.84;38.94;48.08;;
72028;Laerm;59781;52.090;5.030;2023-05-27T01:19:45;41.21;38.97;47.37;;
72028;Laerm;59781;52.090;5.030;2023-05-27T01:22:14;41.23;38.93;51.28;;
72028;Laerm;59781;52.090;5.030;2023-05-27T01:24:40;42.82;38.55;56.45;;
72028;Laerm;59781;52.090;5.030;2023-05-27T01:27:10;40.92;38.76;43.86;;
72028;Laerm;59781;52.090;5.030;2023-05-27T01:29:43;40.91;39.17;42.95;;
72028;Laerm;59781;52.090;5.030;2023-05-27T01:32:30;40.97;39.06;43.47;;
72028;Laerm;59781;52.090;5.030;2023-05-27T01:37:37;41.06;38.92;46.75;;
72028;Laerm;59781;52.090;5.030;2023-05-27T01:40:07;41.21;38.80;46.98;;
72028;Laerm;59781;52.090;5.030;2023-05-27T01:42:40;43.06;39.27;59.54;;
72028;Laerm;59781;52.090;5.030;2023-05-27T01:45:08;41.24;38.93;44.58;;
72028;Laerm;59781;52.090;5.030;2023-05-27T01:47:35;41.18;38.99;44.26;;
72028;Laerm;59781;52.090;5.030;2023-05-27T01:50:02;40.88;38.65;43.04;;
72028;Laerm;59781;52.090;5.030;2023-05-27T01:52:28;40.87;38.66;45.19;;
72028;Laerm;59781;52.090;5.030;2023-05-27T01:54:53;41.39;39.03;47.18;;
72028;Laerm;59781;52.090;5.030;2023-05-27T01:57:21;41.37;38.83;48.54;;
72028;Laerm;59781;52.090;5.030;2023-05-27T01:59:47;41.21;38.96;44.83;;
72028;Laerm;59781;52.090;5.030;2023-05-27T02:02:12;41.13;38.99;46.50;;
72028;Laerm;59781;52.090;5.030;2023-05-27T02:04:38;41.66;38.99;47.53;;
72028;Laerm;59781;52.090;5.030;2023-05-27T02:07:04;41.32;39.31;46.07;;
72028;Laerm;59781;52.090;5.030;2023-05-27T02:09:31;41.34;38.91;43.99;;
72028;Laerm;59781;52.090;5.030;2023-05-27T02:11:56;41.38;38.97;46.45;;
72028;Laerm;59781;52.090;5.030;2023-05-27T02:14:22;41.33;39.10;55.01;;
72028;Laerm;59781;52.090;5.030;2023-05-27T02:16:48;41.26;39.15;47.21;;
72028;Laerm;59781;52.090;5.030;2023-05-27T02:19:17;41.40;38.94;48.21;;
72028;Laerm;59781;52.090;5.030;2023-05-27T02:21:46;41.38;39.34;53.62;;
72028;Laerm;59781;52.090;5.030;2023-05-27T02:24:12;42.65;38.91;51.25;;
72028;Laerm;59781;52.090;5.030;2023-05-27T02:26:37;41.51;39.32;54.08;;
72028;Laerm;59781;52.090;5.030;2023-05-27T02:29:03;41.41;39.15;46.56;;
72028;Laerm;59781;52.090;5.030;2023-05-27T02:31:29;41.46;39.18;45.32;;
72028;Laerm;59781;52.090;5.030;2023-05-27T02:33:55;41.13;38.83;45.36;;
72028;Laerm;59781;52.090;5.030;2023-05-27T02:36:21;41.22;38.95;43.69;;
72028;Laerm;59781;52.090;5.030;2023-05-27T02:38:47;41.36;39.21;55.11;;
72028;Laerm;59781;52.090;5.030;2023-05-27T02:41:13;41.33;38.88;49.92;;
72028;Laerm;59781;52.090;5.030;2023-05-27T02:43:38;41.37;39.20;48.79;;
72028;Laerm;59781;52.090;5.030;2023-05-27T02:46:04;42.81;39.35;52.07;;
72028;Laerm;59781;52.090;5.030;2023-05-27T02:48:30;42.49;39.68;53.06;;
72028;Laerm;59781;52.090;5.030;2023-05-27T02:50:56;42.29;39.31;53.10;;
72028;Laerm;59781;52.090;5.030;2023-05-27T02:53:21;44.29;39.37;64.61;;
72028;Laerm;59781;52.090;5.030;2023-05-27T02:55:47;48.76;39.90;62.25;;
72028;Laerm;59781;52.090;5.030;2023-05-27T02:58:13;48.77;39.56;65.31;;
72028;Laerm;59781;52.090;5.030;2023-05-27T03:00:40;49.81;40.14;66.78;;
72028;Laerm;59781;52.090;5.030;2023-05-27T03:03:07;43.79;39.75;62.30;;
72028;Laerm;59781;52.090;5.030;2023-05-27T03:05:35;42.99;39.86;59.19;;
72028;Laerm;59781;52.090;5.030;2023-05-27T03:08:02;42.04;39.55;58.01;;
72028;Laerm;59781;52.090;5.030;2023-05-27T03:10:32;42.12;39.80;46.62;;
72028;Laerm;59781;52.090;5.030;2023-05-27T03:12:59;42.44;39.53;49.95;;
72028;Laerm;59781;52.090;5.030;2023-05-27T03:15:24;43.51;39.47;67.08;;
72028;Laerm;59781;52.090;5.030;2023-05-27T03:17:50;42.44;39.74;60.18;;
72028;Laerm;59781;52.090;5.030;2023-05-27T03:20:17;43.78;40.23;59.73;;
72028;Laerm;59781;52.090;5.030;2023-05-27T03:22:45;42.41;39.32;57.97;;
72028;Laerm;59781;52.090;5.030;2023-05-27T03:25:11;42.36;39.47;50.44;;
72028;Laerm;59781;52.090;5.030;2023-05-27T03:27:37;42.82;40.09;57.89;;
72028;Laerm;59781;52.090;5.030;2023-05-27T03:30:07;42.24;40.04;48.24;;
72028;Laerm;59781;52.090;5.030;2023-05-27T03:32:37;42.53;40.01;48.33;;
72028;Laerm;59781;52.090;5.030;2023-05-27T03:35:03;42.95;40.44;56.55;;
72028;Laerm;59781;52.090;5.030;2023-05-27T03:37:31;43.87;40.38;60.83;;
72028;Laerm;59781;52.090;5.030;2023-05-27T03:40:01;43.45;40.03;53.56;;
72028;Laerm;59781;52.090;5.030;2023-05-27T03:42:27;44.41;40.32;70.77;;
72028;Laerm;59781;52.090;5.030;2023-05-27T03:44:53;42.72;39.91;48.75;;
72028;Laerm;59781;52.090;5.030;2023-05-27T03:47:18;42.35;39.94;46.51;;
72028;Laerm;59781;52.090;5.030;2023-05-27T03:49:47;48.39;39.67;71.69;;
72028;Laerm;59781;52.090;5.030;2023-05-27T03:52:15;42.71;40.08;48.48;;
72028;Laerm;59781;52.090;5.030;2023-05-27T03:54:41;42.46;39.55;56.36;;
72028;Laerm;59781;52.090;5.030;2023-05-27T03:57:07;42.97;39.99;60.27;;
72028;Laerm;59781;52.090;5.030;2023-05-27T03:59:35;42.98;40.43;54.10;;
72028;Laerm;59781;52.090;5.030;2023-05-27T04:02:01;42.87;40.10;51.46;;
72028;Laerm;59781;52.090;5.030;2023-05-27T04:04:29;42.81;40.12;51.27;;
72028;Laerm;59781;52.090;5.030;2023-05-27T04:06:54;42.57;40.18;44.86;;
72028;Laerm;59781;52.090;5.030;2023-05-27T04:09:21;42.70;40.35;51.66;;
72028;Laerm;59781;52.090;5.030;2023-05-27T04:11:47;43.25;40.90;46.38;;
72028;Laerm;59781;52.090;5.030;2023-05-27T04:14:12;43.67;40.83;64.30;;
72028;Laerm;59781;52.090;5.030;2023-05-27T04:16:38;43.60;41.19;50.49;;
72028;Laerm;59781;52.090;5.030;2023-05-27T04:19:07;43.14;40.42;54.87;;
72028;Laerm;59781;52.090;5.030;2023-05-27T04:21:33;42.65;40.08;47.28;;
72028;Laerm;59781;52.090;5.030;2023-05-27T04:24:00;43.44;40.05;51.26;;
72028;Laerm;59781;52.090;5.030;2023-05-27T04:26:25;42.73;40.29;45.70;;
72028;Laerm;59781;52.090;5.030;2023-05-27T04:28:53;43.03;40.65;50.35;;
72028;Laerm;59781;52.090;5.030;2023-05-27T04:31:20;43.14;40.52;61.93;;
72028;Laerm;59781;52.090;5.030;2023-05-27T04:33:52;42.84;40.29;47.03;;
72028;Laerm;59781;52.090;5.030;2023-05-27T04:36:19;43.87;40.37;58.03;;
72028;Laerm;59781;52.090;5.030;2023-05-27T04:38:57;43.06;40.19;61.48;;
72028;Laerm;59781;52.090;5.030;2023-05-27T04:41:23;42.87;40.29;46.78;;
72028;Laerm;59781;52.090;5.030;2023-05-27T04:44:02;43.18;40.53;52.60;;
72028;Laerm;59781;52.090;5.030;2023-05-27T04:46:32;45.91;40.46;67.49;;
72028;Laerm;59781;52.090;5.030;2023-05-27T04:48:59;42.95;40.32;46.48;;
72028;Laerm;59781;52.090;5.030;2023-05-27T04:51:25;46.33;40.41;72.52;;
72028;Laerm;59781;52.090;5.030;2023-05-27T04:53:52;44.05;40.36;63.01;;
72028;Laerm;59781;52.090;5.030;2023-05-27T04:56:21;42.69;40.10;50.37;;
72028;Laerm;59781;52.090;5.030;2023-05-27T04:58:48;42.96;40.29;52.30;;
72028;Laerm;59781;52.090;5.030;2023-05-27T05:01:17;43.23;40.27;57.67;;
72028;Laerm;59781;52.090;5.030;2023-05-27T05:03:52;43.07;40.47;59.28;;
72028;Laerm;59781;52.090;5.030;2023-05-27T05:06:28;42.71;39.96;53.62;;
72028;Laerm;59781;52.090;5.030;2023-05-27T05:08:54;43.08;40.50;50.74;;
72028;Laerm;59781;52.090;5.030;2023-05-27T05:11:20;42.27;39.89;52.89;;
72028;Laerm;59781;52.090;5.030;2023-05-27T05:13:47;42.56;40.13;54.20;;
72028;Laerm;59781;52.090;5.030;2023-05-27T05:16:12;48.86;40.38;58.62;;
72028;Laerm;59781;52.090;5.030;2023-05-27T05:18:38;44.40;40.25;57.45;;
72028;Laerm;59781;52.090;5.030;2023-05-27T05:21:04;42.60;40.11;55.37;;
72028;Laerm;59781;52.090;5.030;2023-05-27T05:23:38;42.74;40.07;49.85;;
72028;Laerm;59781;52.090;5.030;2023-05-27T05:26:06;42.80;40.39;58.56;;
72028;Laerm;59781;52.090;5.030;2023-05-27T05:28:34;43.03;40.02;54.35;;
72028;Laerm;59781;52.090;5.030;2023-05-27T05:31:01;43.50;39.94;58.12;;
72028;Laerm;59781;52.090;5.030;2023-05-27T05:33:26;42.60;39.97;54.94;;
72028;Laerm;59781;52.090;5.030;2023-05-27T05:35:52;43.23;40.33;58.38;;
72028;Laerm;59781;52.090;5.030;2023-05-27T05:38:23;46.59;40.29;56.59;;
72028;Laerm;59781;52.090;5.030;2023-05-27T05:40:49;45.01;39.90;54.40;;
72028;Laerm;59781;52.090;5.030;2023-05-27T05:43:18;43.90;40.44;59.68;;
72028;Laerm;59781;52.090;5.030;2023-05-27T05:45:46;47.04;40.58;61.83;;
72028;Laerm;59781;52.090;5.030;2023-05-27T05:48:12;46.89;40.48;61.63;;
72028;Laerm;59781;52.090;5.030;2023-05-27T05:50:40;47.84;39.82;64.12;;
72028;Laerm;59781;52.090;5.030;2023-05-27T05:53:06;47.40;40.25;60.44;;
72028;Laerm;59781;52.090;5.030;2023-05-27T05:55:32;43.03;40.15;60.95;;
72028;Laerm;59781;52.090;5.030;2023-05-27T05:57:59;47.56;40.77;61.40;;
72028;Laerm;59781;52.090;5.030;2023-05-27T06:00:25;43.70;40.45;66.21;;
72028;Laerm;59781;52.090;5.030;2023-05-27T06:02:58;42.80;40.49;49.02;;
72028;Laerm;59781;52.090;5.030;2023-05-27T06:05:47;43.18;40.53;47.45;;
72028;Laerm;59781;52.090;5.030;2023-05-27T06:08:13;42.76;39.86;53.47;;
72028;Laerm;59781;52.090;5.030;2023-05-27T06:10:43;43.53;40.21;61.04;;
72028;Laerm;59781;52.090;5.030;2023-05-27T06:13:08;44.15;40.29;58.28;;
72028;Laerm;59781;52.090;5.030;2023-05-27T06:15:37;43.23;40.32;48.99;;
72028;Laerm;59781;52.090;5.030;2023-05-27T06:18:04;43.81;40.13;61.57;;
72028;Laerm;59781;52.090;5.030;2023-05-27T06:20:30;44.47;40.72;62.23;;
72028;Laerm;59781;52.090;5.030;2023-05-27T06:22:56;47.82;40.44;70.15;;
72028;Laerm;59781;52.090;5.030;2023-05-27T06:25:31;43.85;40.37;59.23;;
72028;Laerm;59781;52.090;5.030;2023-05-27T06:28:00;43.56;40.61;64.74;;
72028;Laerm;59781;52.090;5.030;2023-05-27T06:30:26;47.50;40.17;71.75;;
72028;Laerm;59781;52.090;5.030;2023-05-27T06:32:53;42.12;39.58;48.35;;
72028;Laerm;59781;52.090;5.030;2023-05-27T06:35:21;42.99;39.58;52.54;;
72028;Laerm;59781;52.090;5.030;2023-05-27T06:37:47;44.94;39.26;66.13;;
72028;Laerm;59781;52.090;5.030;2023-05-27T06:40:13;42.32;39.68;52.29;;
72028;Laerm;59781;52.090;5.030;2023-05-27T06:42:39;44.33;39.82;62.46;;
72028;Laerm;59781;52.090;5.030;2023-05-27T06:45:17;42.65;39.62;49.00;;
72028;Laerm;59781;52.090;5.030;2023-05-27T06:47:45;48.41;39.73;61.01;;
72028;Laerm;59781;52.090;5.030;2023-05-27T06:50:10;43.97;39.86;58.85;;
72028;Laerm;59781;52.090;5.030;2023-05-27T06:52:37;49.99;40.18;75.43;;
72028;Laerm;59781;52.090;5.030;2023-05-27T06:55:09;46.10;40.59;70.82;;
72028;Laerm;59781;52.090;5.030;2023-05-27T06:58:13;44.17;40.00;56.07;;
72028;Laerm;59781;52.090;5.030;2023-05-27T07:00:53;44.26;40.77;55.25;;
72028;Laerm;59781;52.090;5.030;2023-05-27T07:03:29;43.39;40.10;53.94;;
72028;Laerm;59781;52.090;5.030;2023-05-27T07:05:55;48.57;40.56;61.21;;
72028;Laerm;59781;52.090;5.030;2023-05-27T07:08:22;45.72;40.40;65.83;;
72028;Laerm;59781;52.090;5.030;2023-05-27T07:10:58;46.49;40.04;56.94;;
72028;Laerm;59781;52.090;5.030;2023-05-27T07:13:24;43.29;40.28;57.18;;
72028;Laerm;59781;52.090;5.030;2023-05-27T07:15:52;43.49;39.89;52.07;;
72028;Laerm;59781;52.090;5.030;2023-05-27T07:18:17;45.15;40.73;50.59;;
72028;Laerm;59781;52.090;5.030;2023-05-27T07:20:44;43.59;40.10;57.07;;
72028;Laerm;59781;52.090;5.030;2023-05-27T07:23:12;43.47;40.00;53.75;;
72028;Laerm;59781;52.090;5.030;2023-05-27T07:25:39;43.23;40.22;58.05;;
72028;Laerm;59781;52.090;5.030;2023-05-27T07:28:05;42.98;39.83;53.99;;
72028;Laerm;59781;52.090;5.030;2023-05-27T07:30:33;42.23;39.44;58.08;;
72028;Laerm;59781;52.090;5.030;2023-05-27T07:33:01;42.18;39.00;62.40;;
72028;Laerm;59781;52.090;5.030;2023-05-27T07:35:27;42.13;39.16;64.69;;
72028;Laerm;59781;52.090;5.030;2023-05-27T07:37:53;42.76;39.57;50.31;;
72028;Laerm;59781;52.090;5.030;2023-05-27T07:40:19;48.10;39.78;70.12;;
72028;Laerm;59781;52.090;5.030;2023-05-27T07:42:44;44.17;39.72;62.13;;
72028;Laerm;59781;52.090;5.030;2023-05-27T07:45:10;42.38;39.16;48.64;;
72028;Laerm;59781;52.090;5.030;2023-05-27T07:47:37;42.70;39.55;52.28;;
72028;Laerm;59781;52.090;5.030;2023-05-27T07:50:03;42.25;39.48;49.79;;
72028;Laerm;59781;52.090;5.030;2023-05-27T07:52:52;43.14;39.75;66.47;;
72028;Laerm;59781;52.090;5.030;2023-05-27T07:55:27;43.00;40.08;53.16;;
72028;Laerm;59781;52.090;5.030;2023-05-27T07:57:54;43.58;39.50;66.70;;
72028;Laerm;59781;52.090;5.030;2023-05-27T08:00:23;43.37;39.73;57.75;;
72028;Laerm;59781;52.090;5.030;2023-05-27T08:02:52;44.43;40.07;50.81;;
72028;Laerm;59781;52.090;5.030;2023-05-27T08:05:21;44.71;40.02;56.41;;
72028;Laerm;59781;52.090;5.030;2023-05-27T08:08:07;43.62;39.87;60.17;;
72028;Laerm;59781;52.090;5.030;2023-05-27T08:10:46;43.32;39.56;57.27;;
72028;Laerm;59781;52.090;5.030;2023-05-27T08:13:41;44.78;40.10;54.60;;
72028;Laerm;59781;52.090;5.030;2023-05-27T08:16:24;46.35;40.33;55.91;;
72028;Laerm;59781;52.090;5.030;2023-05-27T08:19:02;48.73;39.89;66.44;;
72028;Laerm;59781;52.090;5.030;2023-05-27T08:21:40;42.78;39.61;54.58;;
72028;Laerm;59781;52.090;5.030;2023-05-27T08:24:11;43.80;39.39;53.11;;
72028;Laerm;59781;52.090;5.030;2023-05-27T08:26:56;44.26;39.47;64.35;;
72028;Laerm;59781;52.090;5.030;2023-05-27T08:29:29;44.49;39.63;68.55;;
72028;Laerm;59781;52.090;5.030;2023-05-27T08:32:16;43.68;39.07;66.11;;
72028;Laerm;59781;52.090;5.030;2023-05-27T08:34:42;43.12;38.78;59.99;;
72028;Laerm;59781;52.090;5.030;2023-05-27T08:37:08;45.21;39.27;70.41;;
72028;Laerm;59781;52.090;5.030;2023-05-27T08:39:38;44.47;39.54;66.36;;
72028;Laerm;59781;52.090;5.030;2023-05-27T08:42:17;43.07;39.34;55.31;;
72028;Laerm;59781;52.090;5.030;2023-05-27T08:44:44;44.30;39.67;53.15;;
72028;Laerm;59781;52.090;5.030;2023-05-27T08:47:11;47.01;40.17;57.34;;
72028;Laerm;59781;52.090;5.030;2023-05-27T08:49:37;45.54;39.43;61.26;;
72028;Laerm;59781;52.090;5.030;2023-05-27T08:52:06;44.31;39.59;53.87;;
72028;Laerm;59781;52.090;5.030;2023-05-27T08:54:37;42.69;39.32;51.24;;
72028;Laerm;59781;52.090;5.030;2023-05-27T08:57:07;43.22;39.62;65.16;;
72028;Laerm;59781;52.090;5.030;2023-05-27T08:59:36;43.83;40.01;50.42;;
72028;Laerm;59781;52.090;5.030;2023-05-27T09:02:12;48.39;39.40;61.39;;
72028;Laerm;59781;52.090;5.030;2023-05-27T09:04:39;46.10;39.58;64.50;;
72028;Laerm;59781;52.090;5.030;2023-05-27T09:07:07;52.27;39.56;66.73;;
72028;Laerm;59781;52.090;5.030;2023-05-27T09:09:33;48.40;39.52;63.14;;
72028;Laerm;59781;52.090;5.030;2023-05-27T09:12:02;42.35;39.00;50.05;;
72028;Laerm;59781;52.090;5.030;2023-05-27T09:14:28;43.51;39.15;54.69;;
72028;Laerm;59781;52.090;5.030;2023-05-27T09:16:56;42.55;38.96;59.04;;
72028;Laerm;59781;52.090;5.030;2023-05-27T09:19:22;43.10;39.53;51.17;;
72028;Laerm;59781;52.090;5.030;2023-05-27T09:21:52;44.36;39.77;56.66;;
72028;Laerm;59781;52.090;5.030;2023-05-27T09:24:18;43.26;39.31;51.31;;
72028;Laerm;59781;52.090;5.030;2023-05-27T09:26:44;46.45;39.66;60.39;;
72028;Laerm;59781;52.090;5.030;2023-05-27T09:29:10;44.86;40.19;59.66;;
72028;Laerm;59781;52.090;5.030;2023-05-27T09:31:40;44.94;40.46;58.05;;
72028;Laerm;59781;52.090;5.030;2023-05-27T09:34:16;45.47;40.02;60.73;;
72028;Laerm;59781;52.090;5.030;2023-05-27T09:36:47;47.39;40.19;68.95;;
72028;Laerm;59781;52.090;5.030;2023-05-27T09:39:15;45.70;39.78;66.66;;
72028;Laerm;59781;52.090;5.030;2023-05-27T09:41:42;43.91;39.59;63.64;;
72028;Laerm;59781;52.090;5.030;2023-05-27T09:44:09;45.46;40.45;68.28;;
72028;Laerm;59781;52.090;5.030;2023-05-27T09:46:36;43.07;39.46;56.51;;
72028;Laerm;59781;52.090;5.030;2023-05-27T09:49:02;45.77;39.67;67.36;;
72028;Laerm;59781;52.090;5.030;2023-05-27T09:51:29;44.79;39.59;70.52;;
72028;Laerm;59781;52.090;5.030;2023-05-27T09:53:58;43.51;39.53;55.44;;
72028;Laerm;59781;52.090;5.030;2023-05-27T09:56:26;44.79;39.91;60.79;;
72028;Laerm;59781;52.090;5.030;2023-05-27T09:58:57;43.02;39.93;54.39;;
72028;Laerm;59781;52.090;5.030;2023-05-27T10:01:26;42.60;39.60;53.78;;
72028;Laerm;59781;52.090;5.030;2023-05-27T10:03:55;45.93;39.20;68.86;;
72028;Laerm;59781;52.090;5.030;2023-05-27T10:06:25;46.02;39.65;68.23;;
72028;Laerm;59781;52.090;5.030;2023-05-27T10:08:55;46.00;39.94;71.32;;
72028;Laerm;59781;52.090;5.030;2023-05-27T10:11:22;44.79;39.99;68.46;;
72028;Laerm;59781;52.090;5.030;2023-05-27T10:13:49;44.88;39.83;62.90;;
72028;Laerm;59781;52.090;5.030;2023-05-27T10:16:26;55.55;40.55;85.18;;
72028;Laerm;59781;52.090;5.030;2023-05-27T10:18:55;50.46;40.48;78.58;;
72028;Laerm;59781;52.090;5.030;2023-05-27T10:21:28;44.03;39.93;59.53;;
72028;Laerm;59781;52.090;5.030;2023-05-27T10:23:59;45.16;40.20;57.97;;
72028;Laerm;59781;52.090;5.030;2023-05-27T10:26:45;44.90;40.96;57.39;;
72028;Laerm;59781;52.090;5.030;2023-05-27T10:29:15;50.42;41.55;74.27;;
72028;Laerm;59781;52.090;5.030;2023-05-27T10:31:52;44.96;39.83;58.50;;
72028;Laerm;59781;52.090;5.030;2023-05-27T10:34:19;47.73;42.57;75.98;;
72028;Laerm;59781;52.090;5.030;2023-05-27T10:36:46;44.47;40.93;55.50;;
72028;Laerm;59781;52.090;5.030;2023-05-27T10:39:16;43.18;39.82;58.22;;
72028;Laerm;59781;52.090;5.030;2023-05-27T10:41:48;47.90;39.92;71.68;;
72028;Laerm;59781;52.090;5.030;2023-05-27T10:44:31;60.75;38.94;93.49;;
72028;Laerm;59781;52.090;5.030;2023-05-27T10:47:14;45.43;38.59;61.99;;
72028;Laerm;59781;52.090;5.030;2023-05-27T10:49:46;46.32;38.80;74.44;;
72028;Laerm;59781;52.090;5.030;2023-05-27T10:52:16;45.20;38.70;63.49;;
72028;Laerm;59781;52.090;5.030;2023-05-27T10:54:47;45.23;39.21;72.55;;
72028;Laerm;59781;52.090;5.030;2023-05-27T10:57:13;48.53;39.04;68.80;;
72028;Laerm;59781;52.090;5.030;2023-05-27T10:59:51;46.14;38.65;65.06;;
72028;Laerm;59781;52.090;5.030;2023-05-27T11:02:23;49.72;39.39;65.44;;
72028;Laerm;59781;52.090;5.030;2023-05-27T11:04:50;45.35;39.44;65.85;;
72028;Laerm;59781;52.090;5.030;2023-05-27T11:07:21;49.14;39.73;73.20;;
72028;Laerm;59781;52.090;5.030;2023-05-27T11:09:51;47.93;39.63;77.50;;
72028;Laerm;59781;52.090;5.030;2023-05-27T11:12:22;49.08;39.85;68.43;;
72028;Laerm;59781;52.090;5.030;2023-05-27T11:14:54;46.57;39.33;74.22;;
72028;Laerm;59781;52.090;5.030;2023-05-27T11:17:21;45.10;39.14;70.79;;
72028;Laerm;59781;52.090;5.030;2023-05-27T11:19:48;48.58;39.01;71.93;;
72028;Laerm;59781;52.090;5.030;2023-05-27T11:22:17;45.86;39.33;60.10;;
72028;Laerm;59781;52.090;5.030;2023-05-27T11:24:56;44.01;39.49;64.77;;
72028;Laerm;59781;52.090;5.030;2023-05-27T11:27:22;44.88;38.64;65.18;;
72028;Laerm;59781;52.090;5.030;2023-05-27T11:29:52;52.99;38.92;81.94;;
72028;Laerm;59781;52.090;5.030;2023-05-27T11:32:19;42.38;38.91;49.42;;
72028;Laerm;59781;52.090;5.030;2023-05-27T11:34:47;42.59;39.02;55.59;;
72028;Laerm;59781;52.090;5.030;2023-05-27T11:37:13;43.16;39.09;54.68;;
72028;Laerm;59781;52.090;5.030;2023-05-27T11:39:50;43.76;38.89;63.87;;
72028;Laerm;59781;52.090;5.030;2023-05-27T11:42:22;44.64;39.32;62.72;;
72028;Laerm;59781;52.090;5.030;2023-05-27T11:44:53;46.15;39.38;59.70;;
72028;Laerm;59781;52.090;5.030;2023-05-27T11:47:21;51.39;41.27;64.82;;
72028;Laerm;59781;52.090;5.030;2023-05-27T11:49:49;44.77;39.06;58.09;;
72028;Laerm;59781;52.090;5.030;2023-05-27T11:52:14;46.30;39.43;58.53;;
72028;Laerm;59781;52.090;5.030;2023-05-27T11:54:41;43.10;38.36;56.17;;
72028;Laerm;59781;52.090;5.030;2023-05-27T11:57:07;42.61;38.97;55.33;;
72028;Laerm;59781;52.090;5.030;2023-05-27T11:59:36;42.93;38.60;62.06;;
72028;Laerm;59781;52.090;5.030;2023-05-27T12:02:02;43.34;40.19;55.32;;
72028;Laerm;59781;52.090;5.030;2023-05-27T12:04:30;43.64;39.96;54.01;;
72028;Laerm;59781;52.090;5.030;2023-05-27T12:06:56;43.61;38.69;57.79;;
72028;Laerm;59781;52.090;5.030;2023-05-27T12:09:26;42.94;39.18;55.04;;
72028;Laerm;59781;52.090;5.030;2023-05-27T12:11:53;42.99;38.89;61.02;;
72028;Laerm;59781;52.090;5.030;2023-05-27T12:14:18;43.74;39.32;62.96;;
72028;Laerm;59781;52.090;5.030;2023-05-27T12:16:44;43.25;39.33;53.24;;
72028;Laerm;59781;52.090;5.030;2023-05-27T12:19:10;43.61;38.92;63.75;;
72028;Laerm;59781;52.090;5.030;2023-05-27T12:21:38;48.16;39.58;70.45;;
72028;Laerm;59781;52.090;5.030;2023-05-27T12:24:04;49.58;39.81;71.49;;
72028;Laerm;59781;52.090;5.030;2023-05-27T12:26:30;43.94;39.36;60.58;;
72028;Laerm;59781;52.090;5.030;2023-05-27T12:28:56;43.61;39.48;54.44;;
72028;Laerm;59781;52.090;5.030;2023-05-27T12:31:22;43.84;38.49;59.93;;
72028;Laerm;59781;52.090;5.030;2023-05-27T12:33:49;43.17;38.86;61.43;;
72028;Laerm;59781;52.090;5.030;2023-05-27T12:36:15;42.82;39.09;57.76;;
72028;Laerm;59781;52.090;5.030;2023-05-27T12:38:41;45.92;39.01;64.39;;
72028;Laerm;59781;52.090;5.030;2023-05-27T12:41:07;52.47;39.33;71.45;;
72028;Laerm;59781;52.090;5.030;2023-05-27T12:43:33;51.25;39.40;77.71;;
72028;Laerm;59781;52.090;5.030;2023-05-27T12:45:59;46.18;39.32;67.55;;
72028;Laerm;59781;52.090;5.030;2023-05-27T12:48:25;47.21;40.14;70.55;;
72028;Laerm;59781;52.090;5.030;2023-05-27T12:50:51;49.61;39.03;74.07;;
72028;Laerm;59781;52.090;5.030;2023-05-27T12:53:17;43.22;39.37;56.86;;
72028;Laerm;59781;52.090;5.030;2023-05-27T12:55:43;43.37;39.46;60.48;;
72028;Laerm;59781;52.090;5.030;2023-05-27T12:58:12;45.13;39.47;59.59;;
72028;Laerm;59781;52.090;5.030;2023-05-27T13:00:37;46.96;39.49;65.18;;
72028;Laerm;59781;52.090;5.030;2023-05-27T13:03:03;45.38;39.12;64.78;;
72028;Laerm;59781;52.090;5.030;2023-05-27T13:05:29;43.79;39.29;67.36;;
72028;Laerm;59781;52.090;5.030;2023-05-27T13:08:04;51.25;38.85;70.03;;
72028;Laerm;59781;52.090;5.030;2023-05-27T13:10:30;57.59;39.48;68.90;;
72028;Laerm;59781;52.090;5.030;2023-05-27T13:12:58;50.07;38.84;77.00;;
72028;Laerm;59781;52.090;5.030;2023-05-27T13:15:25;53.34;38.58;70.29;;
72028;Laerm;59781;52.090;5.030;2023-05-27T13:17:53;54.75;38.94;66.70;;
72028;Laerm;59781;52.090;5.030;2023-05-27T13:20:23;54.66;38.69;70.69;;
72028;Laerm;59781;52.090;5.030;2023-05-27T13:22:49;47.38;39.76;71.66;;
72028;Laerm;59781;52.090;5.030;2023-05-27T13:25:16;49.30;39.73;74.59;;
72028;Laerm;59781;52.090;5.030;2023-05-27T13:27:43;45.55;39.50;63.52;;
72028;Laerm;59781;52.090;5.030;2023-05-27T13:30:15;49.58;39.26;70.12;;
72028;Laerm;59781;52.090;5.030;2023-05-27T13:32:42;47.58;38.84;73.92;;
72028;Laerm;59781;52.090;5.030;2023-05-27T13:35:11;45.20;39.21;67.44;;
72028;Laerm;59781;52.090;5.030;2023-05-27T13:37:40;44.65;38.87;63.59;;
72028;Laerm;59781;52.090;5.030;2023-05-27T13:40:08;54.64;40.12;84.78;;
72028;Laerm;59781;52.090;5.030;2023-05-27T13:42:34;44.72;39.49;58.45;;
72028;Laerm;59781;52.090;5.030;2023-05-27T13:45:00;44.67;39.44;62.68;;
72028;Laerm;59781;52.090;5.030;2023-05-27T13:47:26;47.78;39.34;67.08;;
72028;Laerm;59781;52.090;5.030;2023-05-27T13:49:52;44.98;39.88;58.81;;
72028;Laerm;59781;52.090;5.030;2023-05-27T13:52:17;43.01;38.69;58.66;;
72028;Laerm;59781;52.090;5.030;2023-05-27T13:54:43;44.21;39.20;63.72;;
72028;Laerm;59781;52.090;5.030;2023-05-27T13:57:09;45.94;39.44;61.44;;